Time;durP1;ratioP1;P1;durP2;ratioP2;P2;SDS_P1;SDS_P2;PMS_P1;PMS_P2;Temp;Humidity;BMP_temperature;BMP_pressure;BME280_temperature;BME280_humidity;BME280_pressure;Samples;Min_cycle;Max_cycle;Signal;HPM_P1;HPM_P2
2023/05/13 00:01:20;;;;;;;6.88;3.60;;;14.80;89.90;;;;;;5005418;28;20050;-71
2023/05/13 00:03:46;;;;;;;7.82;3.83;;;14.80;89.60;;;;;;5030695;28;20049;-71
2023/05/13 00:06:11;;;;;;;9.57;4.85;;;14.70;89.40;;;;;;5011654;28;20053;-71
2023/05/13 00:08:37;;;;;;;9.68;4.22;;;14.70;89.80;;;;;;4994947;28;20390;-70
2023/05/13 00:11:03;;;;;;;8.85;4.50;;;14.60;90.10;;;;;;4994581;28;20084;-71
2023/05/13 00:13:29;;;;;;;7.13;4.05;;;14.60;90.50;;;;;;5011493;28;20795;-70
2023/05/13 00:15:55;;;;;;;9.23;4.05;;;14.60;90.50;;;;;;5011039;28;20050;-71
2023/05/13 00:18:20;;;;;;;10.63;4.38;;;14.60;90.50;;;;;;4970836;28;20394;-71
2023/05/13 00:20:46;;;;;;;7.50;4.20;;;14.60;90.70;;;;;;4976930;28;20046;-71
2023/05/13 00:23:13;;;;;;;8.95;4.15;;;14.50;90.70;;;;;;4991458;28;20065;-70
2023/05/13 00:25:40;;;;;;;9.32;4.35;;;14.50;90.80;;;;;;5037184;28;20072;-71
2023/05/13 00:28:06;;;;;;;10.85;4.30;;;14.50;91.00;;;;;;4978127;28;20455;-71
2023/05/13 00:30:32;;;;;;;7.88;3.80;;;14.40;91.00;;;;;;5021482;28;20045;-70
2023/05/13 00:32:58;;;;;;;8.43;4.03;;;14.40;91.20;;;;;;5011443;28;20069;-71
2023/05/13 00:35:24;;;;;;;6.53;3.70;;;14.40;91.20;;;;;;4999133;28;20395;-71
2023/05/13 00:37:50;;;;;;;10.38;4.30;;;14.30;91.30;;;;;;5006892;28;20078;-71
2023/05/13 00:40:20;;;;;;;7.63;4.15;;;14.30;91.40;;;;;;5004604;28;20042;-71
2023/05/13 00:42:46;;;;;;;7.80;4.53;;;14.10;91.70;;;;;;5015887;28;20069;-71
2023/05/13 00:45:12;;;;;;;9.68;4.75;;;14.00;92.00;;;;;;5016344;28;20488;-71
2023/05/13 00:47:41;;;;;;;6.50;4.40;;;14.00;92.00;;;;;;4995000;28;20038;-71
2023/05/13 00:50:08;;;;;;;9.38;4.38;;;14.00;91.70;;;;;;4994552;28;20576;-71
2023/05/13 00:52:35;;;;;;;7.20;4.30;;;14.00;91.80;;;;;;4973964;28;20042;-70
2023/05/13 00:55:02;;;;;;;7.32;4.15;;;14.00;91.50;;;;;;5009168;28;20080;-70
2023/05/13 00:57:27;;;;;;;8.07;3.90;;;14.00;91.40;;;;;;5010186;28;20069;-71
2023/05/13 00:59:53;;;;;;;6.22;3.47;;;13.90;91.30;;;;;;4995559;28;20090;-70
2023/05/13 01:02:26;;;;;;;9.82;4.30;;;14.00;91.60;;;;;;5010809;28;20046;-71
2023/05/13 01:05:16;;;;;;;5.70;3.53;;;14.00;91.80;;;;;;5009360;28;20085;-71
2023/05/13 01:07:48;;;;;;;6.07;3.78;;;13.90;91.40;;;;;;5008976;28;20688;-70
2023/05/13 01:10:37;;;;;;;8.23;3.25;;;13.90;91.20;;;;;;5014614;28;20348;-71
2023/05/13 01:13:13;;;;;;;7.47;3.63;;;13.90;91.10;;;;;;5011225;28;20049;-71
2023/05/13 01:15:48;;;;;;;9.57;5.82;;;14.00;91.40;;;;;;4998251;28;20474;-70
2023/05/13 01:18:19;;;;;;;9.90;5.25;;;14.00;91.60;;;;;;5006889;28;20079;-71
2023/05/13 01:20:44;;;;;;;8.80;4.20;;;13.90;92.20;;;;;;4982021;28;20609;-70
2023/05/13 01:23:11;;;;;;;8.48;4.55;;;13.90;92.40;;;;;;5005946;28;20125;-70
2023/05/13 01:25:38;;;;;;;9.93;4.30;;;13.80;92.40;;;;;;5023795;28;20359;-71
2023/05/13 01:28:04;;;;;;;11.23;3.60;;;13.80;92.60;;;;;;4999392;28;20042;-70
2023/05/13 01:30:30;;;;;;;10.57;4.10;;;13.80;92.80;;;;;;5010016;28;20505;-70
2023/05/13 01:32:56;;;;;;;8.88;3.85;;;13.90;92.90;;;;;;5014462;28;20049;-71
2023/05/13 01:35:22;;;;;;;5.95;3.60;;;13.90;92.90;;;;;;5013944;28;20111;-71
2023/05/13 01:37:49;;;;;;;5.95;3.72;;;13.90;92.80;;;;;;4996694;28;20064;-70
2023/05/13 01:40:14;;;;;;;8.23;3.63;;;13.90;92.80;;;;;;4990732;28;20463;-70
2023/05/13 01:42:40;;;;;;;15.80;4.13;;;13.90;92.80;;;;;;5013001;28;20057;-71
2023/05/13 01:45:06;;;;;;;7.32;4.10;;;13.80;93.00;;;;;;5014221;28;20050;-71
2023/05/13 01:47:32;;;;;;;9.57;4.30;;;13.80;93.20;;;;;;5008790;28;20360;-70
2023/05/13 01:49:58;;;;;;;7.90;3.88;;;13.70;93.40;;;;;;4997096;28;20115;-71
2023/05/13 01:52:24;;;;;;;5.53;3.38;;;13.70;93.60;;;;;;4993463;28;20431;-70
2023/05/13 01:54:49;;;;;;;7.85;4.10;;;13.70;93.70;;;;;;5014035;28;20081;-70
2023/05/13 01:57:15;;;;;;;9.80;4.28;;;13.60;93.70;;;;;;4978135;28;20046;-71
2023/05/13 01:59:41;;;;;;;6.68;3.83;;;13.60;93.70;;;;;;5007200;28;20278;-70
2023/05/13 02:02:06;;;;;;;7.13;4.20;;;13.60;93.80;;;;;;4996496;28;20050;-70
2023/05/13 02:04:32;;;;;;;5.97;3.63;;;13.60;94.00;;;;;;4997282;28;20113;-70
2023/05/13 02:06:58;;;;;;;5.22;3.50;;;13.60;94.20;;;;;;5004969;28;20049;-70
2023/05/13 02:09:24;;;;;;;8.70;3.97;;;13.60;94.30;;;;;;4974608;28;20052;-70
2023/05/13 02:11:50;;;;;;;6.03;3.60;;;13.60;94.50;;;;;;5030806;28;20060;-70
2023/05/13 02:14:15;;;;;;;7.43;4.35;;;13.50;94.60;;;;;;5029345;28;20060;-70
2023/05/13 02:16:41;;;;;;;8.52;4.65;;;13.60;94.70;;;;;;5011247;28;20100;-71
2023/05/13 02:19:07;;;;;;;7.32;4.15;;;13.50;94.60;;;;;;4997101;28;20124;-70
2023/05/13 02:21:33;;;;;;;5.55;3.83;;;13.50;94.90;;;;;;5010891;28;20545;-70
2023/05/13 02:23:58;;;;;;;5.65;3.58;;;13.50;94.90;;;;;;5009364;28;20161;-70
2023/05/13 02:26:24;;;;;;;8.40;4.03;;;13.40;94.80;;;;;;4993166;28;20053;-70
2023/05/13 02:28:50;;;;;;;9.18;4.68;;;13.40;95.10;;;;;;4994595;28;20462;-71
2023/05/13 02:31:16;;;;;;;6.95;3.92;;;13.40;95.10;;;;;;4985848;28;20038;-70
2023/05/13 02:33:42;;;;;;;7.05;4.05;;;13.40;95.10;;;;;;4997750;28;20354;-70
2023/05/13 02:36:08;;;;;;;11.10;4.05;;;13.40;95.10;;;;;;5011890;28;20388;-71
2023/05/13 02:38:34;;;;;;;6.25;4.00;;;13.40;95.10;;;;;;5009342;28;20053;-70
2023/05/13 02:41:00;;;;;;;6.88;4.00;;;13.40;95.20;;;;;;5006296;28;20112;-70
2023/05/13 02:43:27;;;;;;;7.00;3.80;;;13.30;95.10;;;;;;5012141;28;20053;-71
2023/05/13 02:45:53;;;;;;;7.13;3.85;;;13.30;95.30;;;;;;4994601;28;20124;-70
2023/05/13 02:48:18;;;;;;;7.90;4.00;;;13.30;95.30;;;;;;5035442;28;20049;-71
2023/05/13 02:50:44;;;;;;;6.10;4.00;;;13.30;95.30;;;;;;4991923;28;20463;-71
2023/05/13 02:53:10;;;;;;;7.35;4.40;;;13.30;95.40;;;;;;4996333;28;20048;-70
2023/05/13 02:55:37;;;;;;;11.70;4.10;;;13.20;95.40;;;;;;5010890;28;20042;-70
2023/05/13 02:58:03;;;;;;;8.40;4.00;;;13.20;95.40;;;;;;5006109;28;20048;-70
2023/05/13 03:00:29;;;;;;;5.30;4.13;;;13.20;95.40;;;;;;4996152;28;20466;-71
2023/05/13 03:02:55;;;;;;;8.57;4.00;;;13.20;95.50;;;;;;4992870;28;20113;-70
2023/05/13 03:05:21;;;;;;;11.00;4.35;;;13.20;95.70;;;;;;4980305;28;20038;-71
2023/05/13 03:07:47;;;;;;;6.13;4.40;;;13.10;95.70;;;;;;5012082;28;20406;-70
2023/05/13 03:10:12;;;;;;;8.40;4.20;;;13.10;95.90;;;;;;5005771;28;20041;-70
2023/05/13 03:12:38;;;;;;;8.30;4.63;;;13.10;96.10;;;;;;4982358;28;20037;-70
2023/05/13 03:15:04;;;;;;;6.38;3.83;;;13.00;96.20;;;;;;5032297;28;20110;-70
2023/05/13 03:17:30;;;;;;;5.68;4.10;;;13.00;96.10;;;;;;5020924;28;20038;-70
2023/05/13 03:19:56;;;;;;;7.78;4.13;;;13.00;96.10;;;;;;5011989;28;20433;-71
2023/05/13 03:22:22;;;;;;;7.05;3.70;;;13.00;96.10;;;;;;5012540;28;20048;-70
2023/05/13 03:24:47;;;;;;;9.80;3.65;;;13.00;96.20;;;;;;5022103;28;20952;-71
2023/05/13 03:27:13;;;;;;;6.03;4.28;;;13.00;96.50;;;;;;5012329;28;20168;-70
2023/05/13 03:29:39;;;;;;;8.02;4.38;;;13.00;96.60;;;;;;5005299;28;20072;-70
2023/05/13 03:32:05;;;;;;;9.82;4.70;;;13.00;96.70;;;;;;4975705;28;20041;-70
2023/05/13 03:34:32;;;;;;;7.32;4.30;;;12.90;96.60;;;;;;4981885;28;20153;-70
2023/05/13 03:36:58;;;;;;;7.35;4.22;;;12.80;96.50;;;;;;5011703;28;20041;-70
2023/05/13 03:39:25;;;;;;;9.50;4.13;;;12.80;96.60;;;;;;5011715;28;20056;-70
2023/05/13 03:41:51;;;;;;;6.32;3.70;;;12.80;96.60;;;;;;4980283;28;20042;-70
2023/05/13 03:44:17;;;;;;;7.10;4.20;;;12.80;96.70;;;;;;5011408;28;20052;-70
2023/05/13 03:46:42;;;;;;;8.75;4.10;;;12.80;96.70;;;;;;5005527;28;20058;-70
2023/05/13 03:49:08;;;;;;;7.57;3.90;;;12.70;96.90;;;;;;4991999;28;20050;-70
2023/05/13 03:51:34;;;;;;;7.82;4.60;;;12.70;96.70;;;;;;5018093;28;20042;-70
2023/05/13 03:54:00;;;;;;;7.10;4.18;;;12.70;96.90;;;;;;4994540;28;20413;-70
2023/05/13 03:56:27;;;;;;;7.30;4.03;;;12.60;97.10;;;;;;4979340;28;20351;-70
2023/05/13 03:58:52;;;;;;;7.28;4.20;;;12.70;97.10;;;;;;5013972;28;20058;-71
2023/05/13 04:01:18;;;;;;;8.98;4.32;;;12.70;97.20;;;;;;5017737;28;20046;-70
2023/05/13 04:03:45;;;;;;;6.57;4.45;;;12.60;97.40;;;;;;5005105;28;20544;-70
2023/05/13 04:06:12;;;;;;;8.10;4.20;;;12.60;97.40;;;;;;5027304;28;20049;-71
2023/05/13 04:08:38;;;;;;;6.43;4.87;;;12.60;97.40;;;;;;4995933;28;20058;-71
2023/05/13 04:11:04;;;;;;;8.13;4.50;;;12.50;97.30;;;;;;5011702;28;20601;-71
2023/05/13 04:13:32;;;;;;;6.82;4.30;;;12.50;97.70;;;;;;5015083;28;20088;-71
2023/05/13 04:15:58;;;;;;;7.32;4.18;;;12.50;97.50;;;;;;5003829;28;20044;-71
2023/05/13 04:18:24;;;;;;;7.50;4.43;;;12.60;97.70;;;;;;4995369;28;20045;-71
2023/05/13 04:20:49;;;;;;;5.57;3.92;;;12.60;97.80;;;;;;5037255;28;20142;-71
2023/05/13 04:23:15;;;;;;;10.73;5.35;;;12.60;97.90;;;;;;5011246;28;20045;-71
2023/05/13 04:25:41;;;;;;;7.70;4.50;;;12.60;97.90;;;;;;5028229;28;20125;-71
2023/05/13 04:28:07;;;;;;;7.18;4.00;;;12.60;98.00;;;;;;5017354;28;20084;-71
2023/05/13 04:30:34;;;;;;;5.90;4.10;;;12.60;97.80;;;;;;5015469;28;20069;-71
2023/05/13 04:32:59;;;;;;;7.13;4.22;;;12.60;97.70;;;;;;5004797;28;20048;-71
2023/05/13 04:35:25;;;;;;;8.50;4.40;;;12.60;97.90;;;;;;4996710;28;20224;-70
2023/05/13 04:37:51;;;;;;;7.78;4.05;;;12.60;98.20;;;;;;5009109;28;20502;-71
2023/05/13 04:40:17;;;;;;;5.40;4.05;;;12.60;98.10;;;;;;5008054;28;20045;-71
2023/05/13 04:42:42;;;;;;;7.05;3.90;;;12.60;98.30;;;;;;4982261;28;20078;-71
2023/05/13 04:45:08;;;;;;;7.22;4.32;;;12.60;98.00;;;;;;4995119;28;20370;-71
2023/05/13 04:47:34;;;;;;;6.03;3.95;;;12.60;98.30;;;;;;4998991;28;20133;-71
2023/05/13 04:50:00;;;;;;;6.75;4.50;;;12.60;98.50;;;;;;4998715;28;20139;-71
2023/05/13 04:52:26;;;;;;;5.18;3.90;;;12.60;98.50;;;;;;4998518;28;20034;-71
2023/05/13 04:54:53;;;;;;;8.27;4.57;;;12.70;98.60;;;;;;5020476;28;20403;-71
2023/05/13 04:57:19;;;;;;;7.30;4.30;;;12.60;98.70;;;;;;5014205;28;20477;-71
2023/05/13 04:59:45;;;;;;;9.63;4.38;;;12.70;98.70;;;;;;5017451;28;20046;-71
2023/05/13 05:02:10;;;;;;;10.13;4.70;;;12.70;98.50;;;;;;4998624;28;20041;-70
2023/05/13 05:04:36;;;;;;;6.70;4.75;;;12.70;98.60;;;;;;5047845;28;20511;-71
2023/05/13 05:07:02;;;;;;;9.60;4.07;;;12.70;98.60;;;;;;5022441;28;20057;-70
2023/05/13 05:09:28;;;;;;;11.88;4.15;;;12.70;98.40;;;;;;4991408;28;20101;-70
2023/05/13 05:11:54;;;;;;;8.00;4.75;;;12.70;98.60;;;;;;4998617;28;20738;-70
2023/05/13 05:14:20;;;;;;;8.38;4.43;;;12.70;98.50;;;;;;4991146;28;20046;-71
2023/05/13 05:16:46;;;;;;;7.80;4.20;;;12.70;98.40;;;;;;5013941;28;20041;-71
2023/05/13 05:19:11;;;;;;;6.43;4.72;;;12.70;98.60;;;;;;4987547;28;20408;-70
2023/05/13 05:21:37;;;;;;;9.07;4.22;;;12.80;98.50;;;;;;4997746;28;20466;-71
2023/05/13 05:24:04;;;;;;;8.18;4.43;;;12.80;98.50;;;;;;5014724;28;20041;-71
2023/05/13 05:26:29;;;;;;;7.05;4.20;;;12.80;98.60;;;;;;5014626;28;20115;-71
2023/05/13 05:28:55;;;;;;;8.43;4.50;;;12.80;98.40;;;;;;5034573;28;20136;-71
2023/05/13 05:31:21;;;;;;;12.63;4.35;;;12.90;98.40;;;;;;4997975;28;20037;-71
2023/05/13 05:33:47;;;;;;;8.13;4.57;;;12.90;98.70;;;;;;4994753;28;20042;-70
2023/05/13 05:36:12;;;;;;;9.35;4.28;;;12.90;98.70;;;;;;5000231;28;20094;-71
2023/05/13 05:38:38;;;;;;;8.05;3.95;;;13.00;98.60;;;;;;4996542;28;20054;-71
2023/05/13 05:41:05;;;;;;;6.13;4.22;;;13.00;98.50;;;;;;4995785;28;20050;-71
2023/05/13 05:43:31;;;;;;;8.45;4.60;;;13.10;98.70;;;;;;5018340;28;20378;-71
2023/05/13 05:45:56;;;;;;;8.00;4.35;;;13.10;98.80;;;;;;4973211;28;20050;-71
2023/05/13 05:48:22;;;;;;;6.18;4.38;;;13.10;98.80;;;;;;4992697;28;20060;-71
2023/05/13 05:50:48;;;;;;;8.23;4.18;;;13.20;98.80;;;;;;5019971;28;20046;-71
2023/05/13 05:53:14;;;;;;;7.10;4.13;;;13.20;98.80;;;;;;5017185;28;20057;-71
2023/05/13 05:55:40;;;;;;;9.65;4.10;;;13.20;99.10;;;;;;5011011;28;20037;-71
2023/05/13 05:58:06;;;;;;;8.63;4.10;;;13.30;99.00;;;;;;5013982;28;20038;-71
2023/05/13 06:00:32;;;;;;;6.18;4.05;;;13.30;99.00;;;;;;4993663;28;20050;-71
2023/05/13 06:02:58;;;;;;;7.45;4.00;;;13.40;98.50;;;;;;5011395;28;20065;-71
2023/05/13 06:05:24;;;;;;;11.32;4.15;;;13.40;98.60;;;;;;5013010;28;20654;-71
2023/05/13 06:07:49;;;;;;;8.25;4.20;;;13.40;98.40;;;;;;4996550;28;20493;-71
2023/05/13 06:10:15;;;;;;;5.78;4.60;;;13.50;98.40;;;;;;5005911;28;20120;-71
2023/05/13 06:12:41;;;;;;;8.57;4.47;;;13.50;98.40;;;;;;5011577;28;20046;-71
2023/05/13 06:15:09;;;;;;;7.95;4.47;;;13.50;98.20;;;;;;4976433;28;20062;-71
2023/05/13 06:17:39;;;;;;;7.03;3.95;;;13.60;98.30;;;;;;4997702;28;20065;-71
2023/05/13 06:20:06;;;;;;;10.35;4.00;;;13.60;98.60;;;;;;5037516;28;20041;-71
2023/05/13 06:22:32;;;;;;;7.55;4.05;;;13.60;98.60;;;;;;5010945;28;20053;-71
2023/05/13 06:24:58;;;;;;;7.65;4.22;;;13.70;98.60;;;;;;5012863;28;20365;-71
2023/05/13 06:27:24;;;;;;;9.10;4.38;;;13.70;98.70;;;;;;4992578;28;20427;-71
2023/05/13 06:29:50;;;;;;;11.25;4.55;;;13.80;98.90;;;;;;4997099;28;20050;-71
2023/05/13 06:32:15;;;;;;;8.32;4.28;;;13.80;98.80;;;;;;4997079;28;20129;-71
2023/05/13 06:34:45;;;;;;;7.07;4.13;;;13.80;98.80;;;;;;5003591;28;20860;-71
2023/05/13 06:37:12;;;;;;;8.30;4.70;;;13.90;99.00;;;;;;4990298;28;20041;-71
2023/05/13 06:39:38;;;;;;;11.23;4.07;;;14.00;99.20;;;;;;5013547;28;20063;-71
2023/05/13 06:42:04;;;;;;;7.82;4.35;;;14.00;99.00;;;;;;5001857;28;20049;-70
2023/05/13 06:44:30;;;;;;;8.43;4.45;;;14.10;99.00;;;;;;4994970;28;20137;-70
2023/05/13 06:46:56;;;;;;;8.73;4.50;;;14.20;98.90;;;;;;5027681;28;20489;-71
2023/05/13 06:49:25;;;;;;;9.38;4.38;;;14.20;99.00;;;;;;5004471;28;20065;-71
2023/05/13 06:51:52;;;;;;;11.57;4.53;;;14.30;98.90;;;;;;5009827;28;20045;-73
2023/05/13 06:54:19;;;;;;;6.13;4.40;;;14.40;98.90;;;;;;4995839;28;20041;-73
2023/05/13 06:56:44;;;;;;;7.85;4.43;;;14.40;98.60;;;;;;5039990;28;20046;-73
2023/05/13 06:59:10;;;;;;;7.50;4.72;;;14.50;98.70;;;;;;5022091;28;20057;-73
2023/05/13 07:01:36;;;;;;;7.60;5.10;;;14.60;98.60;;;;;;5028349;28;20049;-73
2023/05/13 07:04:02;;;;;;;8.52;4.32;;;14.60;98.90;;;;;;5012176;28;20133;-74
2023/05/13 07:06:28;;;;;;;10.18;4.32;;;14.70;99.00;;;;;;5024845;28;20119;-73
2023/05/13 07:08:55;;;;;;;8.27;4.38;;;14.80;99.10;;;;;;4972388;28;20050;-73
2023/05/13 07:11:22;;;;;;;9.90;4.55;;;14.90;98.70;;;;;;5018555;28;20480;-76
2023/05/13 07:13:47;;;;;;;8.10;4.60;;;14.90;98.60;;;;;;5014651;28;20650;-75
2023/05/13 07:16:13;;;;;;;7.68;4.55;;;14.90;98.50;;;;;;4991386;28;20045;-75
2023/05/13 07:18:39;;;;;;;9.32;5.18;;;15.00;98.40;;;;;;4997861;28;20467;-75
2023/05/13 07:21:05;;;;;;;9.10;4.45;;;15.10;98.30;;;;;;4994438;28;20074;-76
2023/05/13 07:23:34;;;;;;;9.38;4.90;;;15.20;98.20;;;;;;4997146;28;20042;-75
2023/05/13 07:26:00;;;;;;;9.23;4.28;;;15.20;98.20;;;;;;5014303;28;20042;-75
2023/05/13 07:28:26;;;;;;;10.85;4.22;;;15.30;98.60;;;;;;5014707;28;20053;-75
2023/05/13 07:30:54;;;;;;;8.18;4.30;;;15.40;98.80;;;;;;5013735;28;20137;-75
2023/05/13 07:33:20;;;;;;;9.60;4.35;;;15.40;98.40;;;;;;5012337;28;20470;-73
2023/05/13 07:35:46;;;;;;;10.65;4.90;;;15.50;98.40;;;;;;4995192;28;20069;-73
2023/05/13 07:38:11;;;;;;;7.97;4.40;;;15.50;98.30;;;;;;4985561;28;20088;-76
2023/05/13 07:40:37;;;;;;;8.25;4.22;;;15.60;98.10;;;;;;5005868;28;20063;-76
2023/05/13 07:43:03;;;;;;;8.10;4.38;;;15.70;98.10;;;;;;5018244;28;20045;-75
2023/05/13 07:45:29;;;;;;;10.18;5.35;;;15.70;97.90;;;;;;5006718;28;20509;-75
2023/05/13 07:47:55;;;;;;;11.63;4.75;;;15.80;98.20;;;;;;4993680;28;20371;-75
2023/05/13 07:50:21;;;;;;;13.32;4.50;;;15.90;98.10;;;;;;5013520;28;20569;-74
2023/05/13 07:52:50;;;;;;;6.90;4.20;;;15.90;97.70;;;;;;5011699;28;20050;-71
2023/05/13 07:55:16;;;;;;;7.72;4.30;;;16.00;97.20;;;;;;5012032;28;20533;-72
2023/05/13 07:57:42;;;;;;;9.70;4.80;;;16.00;97.10;;;;;;5004444;28;20125;-72
2023/05/13 08:00:08;;;;;;;7.38;4.70;;;16.10;97.20;;;;;;4992233;28;20137;-71
2023/05/13 08:02:42;;;;;;;11.18;4.50;;;16.20;97.10;;;;;;5004182;28;20046;-72
2023/05/13 08:05:09;;;;;;;12.15;4.78;;;16.30;96.90;;;;;;4996243;28;20051;-72
2023/05/13 08:07:35;;;;;;;10.27;4.45;;;16.40;97.20;;;;;;5006101;28;20041;-76
2023/05/13 08:10:01;;;;;;;9.35;5.07;;;16.50;96.40;;;;;;5020692;28;20137;-72
2023/05/13 08:12:26;;;;;;;7.03;4.20;;;16.50;96.60;;;;;;4990998;28;20124;-71
2023/05/13 08:14:52;;;;;;;9.30;4.53;;;16.60;96.20;;;;;;5010889;28;20054;-72
2023/05/13 08:17:18;;;;;;;8.18;4.05;;;16.70;96.00;;;;;;4976301;28;20041;-72
2023/05/13 08:19:44;;;;;;;7.07;4.25;;;16.70;96.20;;;;;;4973013;28;20041;-72
2023/05/13 08:22:10;;;;;;;7.55;4.30;;;16.80;96.80;;;;;;5021323;28;20322;-71
2023/05/13 08:24:39;;;;;;;8.10;4.28;;;17.00;97.00;;;;;;5020387;28;20520;-72
2023/05/13 08:27:05;;;;;;;;;;;17.00;96.70;;;;;;4996949;28;20111;-72
2023/05/13 08:29:30;;;;;;;9.75;4.43;;;17.10;96.30;;;;;;4999703;28;20326;-72
2023/05/13 08:31:56;;;;;;;7.70;4.22;;;17.20;95.70;;;;;;4992432;28;20049;-72
2023/05/13 08:34:22;;;;;;;7.68;4.38;;;17.40;94.80;;;;;;5011539;28;20057;-72
2023/05/13 08:36:48;;;;;;;10.02;4.32;;;17.40;94.80;;;;;;5015784;28;20042;-72
2023/05/13 08:39:13;;;;;;;10.48;4.25;;;17.50;94.90;;;;;;4975445;28;20073;-72
2023/05/13 08:41:39;;;;;;;10.65;4.22;;;17.50;94.90;;;;;;4988870;28;20516;-72
2023/05/13 08:44:06;;;;;;;8.55;4.45;;;17.60;94.20;;;;;;4985530;28;20056;-72
2023/05/13 08:46:33;;;;;;;13.65;4.40;;;17.70;94.80;;;;;;4994783;28;20050;-72
2023/05/13 08:48:59;;;;;;;8.70;4.35;;;17.80;94.70;;;;;;4994623;28;20050;-72
2023/05/13 08:51:25;;;;;;;12.18;4.00;;;17.90;93.70;;;;;;4991168;28;20047;-72
2023/05/13 08:53:51;;;;;;;7.57;4.32;;;17.90;94.10;;;;;;4994302;28;20116;-72
2023/05/13 08:56:17;;;;;;;8.63;4.25;;;17.90;92.10;;;;;;4996502;28;20112;-72
2023/05/13 08:58:43;;;;;;;8.73;4.15;;;18.00;91.90;;;;;;4987837;28;20046;-72
2023/05/13 09:01:09;;;;;;;10.95;4.00;;;18.10;92.20;;;;;;5035366;28;20084;-72
2023/05/13 09:03:35;;;;;;;8.75;4.07;;;18.20;91.50;;;;;;4994255;28;20220;-72
2023/05/13 09:06:06;;;;;;;9.65;4.30;;;18.30;92.80;;;;;;4975245;28;20046;-72
2023/05/13 09:08:32;;;;;;;9.07;3.78;;;18.40;91.50;;;;;;4994611;28;20045;-72
2023/05/13 09:10:58;;;;;;;9.27;3.83;;;18.40;90.80;;;;;;4988181;28;20447;-72
2023/05/13 09:13:24;;;;;;;7.07;4.18;;;18.50;89.30;;;;;;4991097;28;20432;-71
2023/05/13 09:15:50;;;;;;;7.00;3.60;;;18.60;89.80;;;;;;4997861;28;20050;-72
2023/05/13 09:18:16;;;;;;;6.07;3.55;;;18.60;88.90;;;;;;5005861;28;20053;-72
2023/05/13 09:20:42;;;;;;;6.60;3.20;;;18.60;85.10;;;;;;5001366;28;20125;-72
2023/05/13 09:23:10;;;;;;;9.13;3.03;;;18.70;87.10;;;;;;5004820;28;20141;-72
2023/05/13 09:25:37;;;;;;;7.07;3.40;;;18.70;80.90;;;;;;5005157;28;20797;-72
2023/05/13 09:28:03;;;;;;;8.75;3.35;;;18.80;81.80;;;;;;5013185;28;20505;-72
2023/05/13 09:30:29;;;;;;;7.25;3.50;;;18.80;83.90;;;;;;5022893;28;20480;-72
2023/05/13 09:33:18;;;;;;;7.38;3.70;;;18.90;82.30;;;;;;5000860;28;20043;-72
2023/05/13 09:35:48;;;;;;;9.35;3.58;;;18.90;83.50;;;;;;5013655;28;20057;-72
2023/05/13 09:38:23;;;;;;;6.15;3.30;;;19.00;83.20;;;;;;4994076;28;20046;-72
2023/05/13 09:40:53;;;;;;;7.55;3.80;;;19.10;83.60;;;;;;4998150;28;20049;-72
2023/05/13 09:43:20;;;;;;;5.65;3.10;;;19.10;82.70;;;;;;5007413;28;20057;-72
2023/05/13 09:45:46;;;;;;;9.52;3.20;;;19.20;79.20;;;;;;5006553;28;20045;-72
2023/05/13 09:48:13;;;;;;;7.68;3.50;;;19.20;79.10;;;;;;4980099;28;20057;-72
2023/05/13 09:50:48;;;;;;;5.85;3.45;;;19.40;77.40;;;;;;5007244;28;20100;-71
2023/05/13 09:53:15;;;;;;;8.30;3.10;;;19.40;78.90;;;;;;5013496;28;20445;-72
2023/05/13 09:55:47;;;;;;;9.27;3.25;;;19.50;78.80;;;;;;5007937;28;20478;-71
2023/05/13 09:58:13;;;;;;;9.68;3.00;;;19.40;75.20;;;;;;4975451;28;20110;-71
2023/05/13 10:00:42;;;;;;;5.53;3.40;;;19.40;74.80;;;;;;5013382;28;20545;-71
2023/05/13 10:03:08;;;;;;;8.00;3.58;;;19.40;76.90;;;;;;5013222;28;20053;-72
2023/05/13 10:05:34;;;;;;;6.63;3.08;;;19.50;77.10;;;;;;5006188;28;20128;-72
2023/05/13 10:08:01;;;;;;;9.02;3.25;;;19.60;75.80;;;;;;4996929;28;20081;-72
2023/05/13 10:10:28;;;;;;;7.20;3.28;;;19.60;74.90;;;;;;5012823;28;20129;-72
2023/05/13 10:12:54;;;;;;;8.73;3.73;;;19.70;76.60;;;;;;5013247;28;20069;-73
2023/05/13 10:15:19;;;;;;;7.38;3.10;;;19.90;76.20;;;;;;5010598;28;20089;-73
2023/05/13 10:17:45;;;;;;;7.25;3.42;;;19.90;73.20;;;;;;4981223;28;20103;-72
2023/05/13 10:20:11;;;;;;;4.93;3.10;;;20.00;75.50;;;;;;5004420;28;20192;-73
2023/05/13 10:22:37;;;;;;;7.80;3.20;;;20.00;75.10;;;;;;5020887;28;20065;-73
2023/05/13 10:25:03;;;;;;;5.43;2.80;;;20.10;71.50;;;;;;4996342;28;20050;-72
2023/05/13 10:27:31;;;;;;;8.57;3.00;;;20.00;72.90;;;;;;4999558;28;20053;-73
2023/05/13 10:29:58;;;;;;;8.00;3.00;;;20.30;73.80;;;;;;4996088;28;20054;-73
2023/05/13 10:32:25;;;;;;;9.77;2.95;;;20.40;73.00;;;;;;5013131;28;20281;-73
2023/05/13 10:35:11;;;;;;;6.95;3.20;;;20.60;76.10;;;;;;4991377;28;20045;-72
2023/05/13 10:37:55;;;;;;;4.35;2.60;;;20.80;71.00;;;;;;4995913;28;20045;-72
2023/05/13 10:40:40;;;;;;;12.25;2.40;;;21.00;68.40;;;;;;4996369;28;20085;-72
2023/05/13 10:43:14;;;;;;;6.88;2.72;;;21.10;66.80;;;;;;5013650;28;20049;-72
2023/05/13 10:45:44;;;;;;;5.13;2.67;;;21.10;64.90;;;;;;5020989;28;20042;-72
2023/05/13 10:48:13;;;;;;;6.13;2.55;;;21.10;64.90;;;;;;4990155;28;20474;-72
2023/05/13 10:50:39;;;;;;;3.72;2.30;;;21.20;66.20;;;;;;5005694;28;20458;-72
2023/05/13 10:53:09;;;;;;;5.80;2.60;;;21.40;68.10;;;;;;5015258;28;20145;-72
2023/05/13 10:55:44;;;;;;;7.18;2.58;;;21.30;65.70;;;;;;4995651;28;20044;-72
2023/05/13 10:58:10;;;;;;;9.40;3.17;;;21.10;67.30;;;;;;5026961;28;20120;-72
2023/05/13 11:00:37;;;;;;;5.18;2.30;;;21.10;64.10;;;;;;5013123;28;20046;-72
2023/05/13 11:03:18;;;;;;;5.95;2.42;;;21.40;67.10;;;;;;5019562;28;20042;-72
2023/05/13 11:06:25;;;;;;;5.70;2.45;;;21.40;60.00;;;;;;5015229;28;20050;-72
2023/05/13 11:08:52;;;;;;;;;;;21.60;62.80;;;;;;4994425;28;20104;-72
2023/05/13 11:11:23;;;;;;;7.18;2.47;;;21.80;64.70;;;;;;5011485;28;20393;-72
2023/05/13 11:13:50;;;;;;;8.38;2.40;;;22.00;60.70;;;;;;4994313;28;20054;-72
2023/05/13 11:16:15;;;;;;;4.97;2.20;;;22.00;59.70;;;;;;4993063;28;20042;-72
2023/05/13 11:18:41;;;;;;;8.25;2.17;;;21.90;60.10;;;;;;4994227;28;20115;-73
2023/05/13 11:21:10;;;;;;;8.18;2.60;;;22.10;63.00;;;;;;4992676;28;20046;-73
2023/05/13 11:23:59;;;;;;;4.82;2.20;;;22.10;57.10;;;;;;4984831;28;20193;-72
2023/05/13 11:26:25;;;;;;;5.68;2.50;;;22.00;55.80;;;;;;5026455;28;20386;-72
2023/05/13 11:28:52;;;;;;;5.10;2.15;;;21.80;56.80;;;;;;5006655;28;20480;-72
2023/05/13 11:31:18;;;;;;;3.83;2.10;;;22.00;58.40;;;;;;5013275;28;20057;-72
2023/05/13 11:34:09;;;;;;;5.35;2.50;;;22.10;59.40;;;;;;4987088;28;20116;-72
2023/05/13 11:36:39;;;;;;;5.50;2.40;;;22.30;58.00;;;;;;5007277;28;20072;-72
2023/05/13 11:39:16;;;;;;;3.67;2.10;;;22.20;58.20;;;;;;4990664;28;20407;-72
2023/05/13 11:41:43;;;;;;;4.47;2.10;;;22.00;55.30;;;;;;4971161;28;20482;-72
2023/05/13 11:44:10;;;;;;;6.13;2.07;;;22.00;54.00;;;;;;5010624;28;20054;-72
2023/05/13 11:46:59;;;;;;;8.52;2.30;;;22.00;52.40;;;;;;4982713;28;20837;-73
2023/05/13 11:49:44;;;;;;;7.70;2.35;;;22.20;56.50;;;;;;4995541;28;20054;-73
2023/05/13 11:52:14;;;;;;;5.07;1.98;;;22.50;54.30;;;;;;5002581;28;20076;-72
2023/05/13 11:54:47;;;;;;;4.40;2.20;;;22.60;51.40;;;;;;5002249;28;20555;-73
2023/05/13 11:57:26;;;;;;;4.85;2.25;;;22.80;52.90;;;;;;4985082;28;20458;-74
2023/05/13 11:59:58;;;;;;;7.78;2.30;;;23.00;55.50;;;;;;4971559;28;20050;-74
2023/05/13 12:02:26;;;;;;;5.20;2.05;;;23.00;52.50;;;;;;5036558;28;20057;-74
2023/05/13 12:04:52;;;;;;;5.97;2.20;;;23.00;52.20;;;;;;5011489;28;20050;-74
2023/05/13 12:07:24;;;;;;;6.75;2.20;;;23.00;49.30;;;;;;5007088;28;20358;-75
2023/05/13 12:09:51;;;;;;;5.40;2.10;;;23.10;49.20;;;;;;4978661;28;20451;-74
2023/05/13 12:12:17;;;;;;;8.35;2.00;;;23.20;53.00;;;;;;4988555;28;20096;-75
2023/05/13 12:14:49;;;;;;;7.43;2.42;;;23.30;53.50;;;;;;5010843;28;20065;-74
2023/05/13 12:17:18;;;;;;;5.95;1.90;;;23.50;53.00;;;;;;4993847;28;20053;-75
2023/05/13 12:20:22;;;;;;;8.00;2.10;;;23.50;49.80;;;;;;4984618;28;20053;-74
2023/05/13 12:22:51;;;;;;;5.30;2.15;;;23.50;48.80;;;;;;4985032;28;20081;-74
2023/05/13 12:25:38;;;;;;;5.32;1.95;;;23.60;48.50;;;;;;5003570;28;20096;-74
2023/05/13 12:28:10;;;;;;;6.05;2.30;;;23.50;49.10;;;;;;5008921;28;20052;-73
2023/05/13 12:30:37;;;;;;;5.63;1.90;;;23.60;48.90;;;;;;5017011;28;20095;-73
2023/05/13 12:33:06;;;;;;;3.47;1.73;;;23.60;49.20;;;;;;5011926;28;20046;-74
2023/05/13 12:35:32;;;;;;;6.75;1.90;;;23.80;50.40;;;;;;4985590;28;20133;-73
2023/05/13 12:38:02;;;;;;;5.35;2.20;;;23.90;49.30;;;;;;4994382;28;20125;-74
2023/05/13 12:40:27;;;;;;;4.82;1.95;;;23.90;46.90;;;;;;5000376;28;20052;-74
2023/05/13 12:43:00;;;;;;;5.00;2.00;;;24.00;47.20;;;;;;5011723;28;20054;-74
2023/05/13 12:45:29;;;;;;;4.30;1.83;;;24.10;46.60;;;;;;5000654;28;20054;-74
2023/05/13 12:47:58;;;;;;;6.00;2.00;;;24.10;45.90;;;;;;4981565;28;20049;-75